sensor_id;sensor_type;location;lat;lon;timestamp;P1;durP1;ratioP1;P2;durP2;ratioP2
80136;SDS011;69466;55.948;37.484;2023-10-31T00:01:24;11.57;;;5.20;;
80136;SDS011;69466;55.948;37.484;2023-10-31T00:03:51;9.32;;;5.00;;
80136;SDS011;69466;55.948;37.484;2023-10-31T00:06:16;9.45;;;5.05;;
80136;SDS011;69466;55.948;37.484;2023-10-31T00:08:43;8.88;;;4.93;;
80136;SDS011;69466;55.948;37.484;2023-10-31T00:11:09;7.22;;;4.43;;
80136;SDS011;69466;55.948;37.484;2023-10-31T00:13:35;8.38;;;4.63;;
80136;SDS011;69466;55.948;37.484;2023-10-31T00:16:02;7.00;;;4.60;;
80136;SDS011;69466;55.948;37.484;2023-10-31T00:18:28;9.43;;;5.20;;
80136;SDS011;69466;55.948;37.484;2023-10-31T00:20:54;8.18;;;4.68;;
80136;SDS011;69466;55.948;37.484;2023-10-31T00:23:21;8.55;;;4.68;;
80136;SDS011;69466;55.948;37.484;2023-10-31T00:25:48;8.32;;;4.70;;
80136;SDS011;69466;55.948;37.484;2023-10-31T00:28:14;8.48;;;4.20;;
80136;SDS011;69466;55.948;37.484;2023-10-31T00:30:39;9.50;;;4.60;;
80136;SDS011;69466;55.948;37.484;2023-10-31T00:33:05;7.05;;;4.25;;
80136;SDS011;69466;55.948;37.484;2023-10-31T00:35:32;9.13;;;4.63;;
80136;SDS011;69466;55.948;37.484;2023-10-31T00:37:58;7.55;;;4.10;;
80136;SDS011;69466;55.948;37.484;2023-10-31T00:40:26;7.18;;;4.68;;
80136;SDS011;69466;55.948;37.484;2023-10-31T00:42:52;9.68;;;4.30;;
80136;SDS011;69466;55.948;37.484;2023-10-31T00:45:19;8.25;;;3.88;;
80136;SDS011;69466;55.948;37.484;2023-10-31T00:47:45;7.82;;;4.55;;
80136;SDS011;69466;55.948;37.484;2023-10-31T00:50:11;9.35;;;4.20;;
80136;SDS011;69466;55.948;37.484;2023-10-31T00:52:37;8.23;;;4.68;;
80136;SDS011;69466;55.948;37.484;2023-10-31T00:55:03;7.10;;;4.00;;
80136;SDS011;69466;55.948;37.484;2023-10-31T00:57:30;7.30;;;4.72;;
80136;SDS011;69466;55.948;37.484;2023-10-31T00:59:56;6.57;;;3.97;;
80136;SDS011;69466;55.948;37.484;2023-10-31T01:02:22;8.63;;;4.78;;
80136;SDS011;69466;55.948;37.484;2023-10-31T01:04:48;9.70;;;5.18;;
80136;SDS011;69466;55.948;37.484;2023-10-31T01:07:14;7.10;;;3.92;;
80136;SDS011;69466;55.948;37.484;2023-10-31T01:09:42;6.32;;;3.83;;
80136;SDS011;69466;55.948;37.484;2023-10-31T01:12:10;6.78;;;3.70;;
80136;SDS011;69466;55.948;37.484;2023-10-31T01:14:36;8.43;;;4.07;;
80136;SDS011;69466;55.948;37.484;2023-10-31T01:17:03;6.97;;;4.10;;
80136;SDS011;69466;55.948;37.484;2023-10-31T01:19:29;6.35;;;4.50;;
80136;SDS011;69466;55.948;37.484;2023-10-31T01:21:55;12.88;;;5.38;;
80136;SDS011;69466;55.948;37.484;2023-10-31T01:24:21;7.43;;;4.20;;
80136;SDS011;69466;55.948;37.484;2023-10-31T01:26:48;5.85;;;3.67;;
80136;SDS011;69466;55.948;37.484;2023-10-31T01:29:14;6.40;;;3.63;;
80136;SDS011;69466;55.948;37.484;2023-10-31T01:31:41;8.68;;;4.50;;
80136;SDS011;69466;55.948;37.484;2023-10-31T01:34:07;6.20;;;4.28;;
80136;SDS011;69466;55.948;37.484;2023-10-31T01:36:33;8.18;;;3.75;;
80136;SDS011;69466;55.948;37.484;2023-10-31T01:41:29;19.20;;;4.93;;
80136;SDS011;69466;55.948;37.484;2023-10-31T01:43:55;9.25;;;4.30;;
80136;SDS011;69466;55.948;37.484;2023-10-31T01:46:21;8.20;;;4.25;;
80136;SDS011;69466;55.948;37.484;2023-10-31T01:48:47;8.52;;;4.13;;
80136;SDS011;69466;55.948;37.484;2023-10-31T01:51:13;7.93;;;4.18;;
80136;SDS011;69466;55.948;37.484;2023-10-31T01:53:39;5.90;;;3.90;;
80136;SDS011;69466;55.948;37.484;2023-10-31T01:56:05;8.55;;;3.92;;
80136;SDS011;69466;55.948;37.484;2023-10-31T01:58:36;7.47;;;4.22;;
80136;SDS011;69466;55.948;37.484;2023-10-31T02:01:03;8.32;;;4.35;;
80136;SDS011;69466;55.948;37.484;2023-10-31T02:03:30;8.52;;;4.90;;
80136;SDS011;69466;55.948;37.484;2023-10-31T02:05:56;6.88;;;3.78;;
80136;SDS011;69466;55.948;37.484;2023-10-31T02:08:24;6.38;;;3.70;;
80136;SDS011;69466;55.948;37.484;2023-10-31T02:10:51;8.27;;;5.45;;
80136;SDS011;69466;55.948;37.484;2023-10-31T02:13:19;5.85;;;3.15;;
80136;SDS011;69466;55.948;37.484;2023-10-31T02:15:45;5.05;;;3.35;;
80136;SDS011;69466;55.948;37.484;2023-10-31T02:18:12;7.95;;;3.60;;
80136;SDS011;69466;55.948;37.484;2023-10-31T02:20:59;7.50;;;3.90;;
80136;SDS011;69466;55.948;37.484;2023-10-31T02:23:26;6.72;;;3.72;;
80136;SDS011;69466;55.948;37.484;2023-10-31T02:25:52;6.15;;;3.50;;
80136;SDS011;69466;55.948;37.484;2023-10-31T02:28:18;6.65;;;3.83;;
80136;SDS011;69466;55.948;37.484;2023-10-31T02:30:44;5.82;;;3.65;;
80136;SDS011;69466;55.948;37.484;2023-10-31T02:33:10;6.63;;;4.22;;
80136;SDS011;69466;55.948;37.484;2023-10-31T02:35:37;7.75;;;4.20;;
80136;SDS011;69466;55.948;37.484;2023-10-31T02:38:03;7.53;;;4.18;;
80136;SDS011;69466;55.948;37.484;2023-10-31T02:40:29;8.07;;;3.95;;
80136;SDS011;69466;55.948;37.484;2023-10-31T02:42:55;7.03;;;4.35;;
80136;SDS011;69466;55.948;37.484;2023-10-31T02:45:21;7.38;;;4.20;;
80136;SDS011;69466;55.948;37.484;2023-10-31T02:47:47;8.27;;;4.05;;
80136;SDS011;69466;55.948;37.484;2023-10-31T02:50:15;9.50;;;4.97;;
80136;SDS011;69466;55.948;37.484;2023-10-31T02:52:41;7.60;;;4.07;;
80136;SDS011;69466;55.948;37.484;2023-10-31T02:55:07;8.45;;;3.92;;
80136;SDS011;69466;55.948;37.484;2023-10-31T02:57:34;8.90;;;4.20;;
80136;SDS011;69466;55.948;37.484;2023-10-31T03:00:00;6.65;;;3.72;;
80136;SDS011;69466;55.948;37.484;2023-10-31T03:02:29;8.07;;;4.25;;
80136;SDS011;69466;55.948;37.484;2023-10-31T03:04:55;6.43;;;4.10;;
80136;SDS011;69466;55.948;37.484;2023-10-31T03:07:22;5.72;;;3.78;;
80136;SDS011;69466;55.948;37.484;2023-10-31T03:09:48;7.22;;;3.95;;
80136;SDS011;69466;55.948;37.484;2023-10-31T03:12:14;8.18;;;3.88;;
80136;SDS011;69466;55.948;37.484;2023-10-31T03:14:40;6.32;;;3.75;;
80136;SDS011;69466;55.948;37.484;2023-10-31T03:17:06;6.57;;;3.97;;
80136;SDS011;69466;55.948;37.484;2023-10-31T03:19:32;8.30;;;4.32;;
80136;SDS011;69466;55.948;37.484;2023-10-31T03:24:34;6.18;;;3.60;;
80136;SDS011;69466;55.948;37.484;2023-10-31T03:27:00;7.63;;;4.53;;
80136;SDS011;69466;55.948;37.484;2023-10-31T03:29:26;6.63;;;3.85;;
80136;SDS011;69466;55.948;37.484;2023-10-31T03:31:52;6.38;;;3.85;;
80136;SDS011;69466;55.948;37.484;2023-10-31T03:34:18;7.95;;;4.43;;
80136;SDS011;69466;55.948;37.484;2023-10-31T03:36:43;6.38;;;3.80;;
80136;SDS011;69466;55.948;37.484;2023-10-31T03:39:09;6.88;;;3.63;;
80136;SDS011;69466;55.948;37.484;2023-10-31T03:41:35;6.43;;;4.00;;
80136;SDS011;69466;55.948;37.484;2023-10-31T03:44:01;7.93;;;4.53;;
80136;SDS011;69466;55.948;37.484;2023-10-31T03:46:27;8.68;;;4.25;;
80136;SDS011;69466;55.948;37.484;2023-10-31T03:48:53;6.53;;;4.28;;
80136;SDS011;69466;55.948;37.484;2023-10-31T03:51:19;8.25;;;5.40;;
80136;SDS011;69466;55.948;37.484;2023-10-31T03:53:45;7.30;;;4.28;;
80136;SDS011;69466;55.948;37.484;2023-10-31T03:56:10;7.55;;;3.83;;
80136;SDS011;69466;55.948;37.484;2023-10-31T03:58:36;6.95;;;4.35;;
80136;SDS011;69466;55.948;37.484;2023-10-31T04:01:02;6.68;;;3.97;;
80136;SDS011;69466;55.948;37.484;2023-10-31T04:03:28;7.03;;;4.57;;
80136;SDS011;69466;55.948;37.484;2023-10-31T04:05:54;6.85;;;4.35;;
80136;SDS011;69466;55.948;37.484;2023-10-31T04:08:20;7.47;;;4.85;;
80136;SDS011;69466;55.948;37.484;2023-10-31T04:10:46;8.55;;;5.13;;
80136;SDS011;69466;55.948;37.484;2023-10-31T04:13:12;8.43;;;5.40;;
80136;SDS011;69466;55.948;37.484;2023-10-31T04:15:38;8.00;;;5.40;;
80136;SDS011;69466;55.948;37.484;2023-10-31T04:18:03;8.32;;;5.18;;
80136;SDS011;69466;55.948;37.484;2023-10-31T04:20:31;8.65;;;5.80;;
80136;SDS011;69466;55.948;37.484;2023-10-31T04:22:56;7.93;;;5.10;;
80136;SDS011;69466;55.948;37.484;2023-10-31T04:25:22;9.45;;;5.85;;
80136;SDS011;69466;55.948;37.484;2023-10-31T04:27:49;8.18;;;5.50;;
80136;SDS011;69466;55.948;37.484;2023-10-31T04:30:15;9.27;;;6.15;;
80136;SDS011;69466;55.948;37.484;2023-10-31T04:32:41;10.75;;;7.40;;
80136;SDS011;69466;55.948;37.484;2023-10-31T04:35:06;10.68;;;6.93;;
80136;SDS011;69466;55.948;37.484;2023-10-31T04:37:33;10.35;;;6.13;;
80136;SDS011;69466;55.948;37.484;2023-10-31T04:40:00;8.13;;;5.68;;
80136;SDS011;69466;55.948;37.484;2023-10-31T04:42:26;11.50;;;6.63;;
80136;SDS011;69466;55.948;37.484;2023-10-31T04:44:52;10.73;;;6.68;;
80136;SDS011;69466;55.948;37.484;2023-10-31T04:47:18;8.75;;;6.00;;
80136;SDS011;69466;55.948;37.484;2023-10-31T04:49:43;11.02;;;6.20;;
80136;SDS011;69466;55.948;37.484;2023-10-31T04:52:09;9.63;;;6.00;;
80136;SDS011;69466;55.948;37.484;2023-10-31T04:54:36;10.55;;;7.05;;
80136;SDS011;69466;55.948;37.484;2023-10-31T04:57:03;8.70;;;6.18;;
80136;SDS011;69466;55.948;37.484;2023-10-31T04:59:29;8.73;;;5.85;;
80136;SDS011;69466;55.948;37.484;2023-10-31T05:01:56;10.73;;;5.97;;
80136;SDS011;69466;55.948;37.484;2023-10-31T05:04:23;10.38;;;6.38;;
80136;SDS011;69466;55.948;37.484;2023-10-31T05:06:49;9.02;;;5.80;;
80136;SDS011;69466;55.948;37.484;2023-10-31T05:09:15;10.93;;;6.20;;
80136;SDS011;69466;55.948;37.484;2023-10-31T05:11:40;8.70;;;5.53;;
80136;SDS011;69466;55.948;37.484;2023-10-31T05:14:08;8.63;;;5.78;;
80136;SDS011;69466;55.948;37.484;2023-10-31T05:16:39;7.38;;;5.13;;
80136;SDS011;69466;55.948;37.484;2023-10-31T05:19:08;11.80;;;5.80;;
80136;SDS011;69466;55.948;37.484;2023-10-31T05:21:35;10.63;;;6.50;;
80136;SDS011;69466;55.948;37.484;2023-10-31T05:24:01;12.43;;;6.28;;
80136;SDS011;69466;55.948;37.484;2023-10-31T05:26:28;9.50;;;5.22;;
80136;SDS011;69466;55.948;37.484;2023-10-31T05:28:56;10.10;;;6.63;;
80136;SDS011;69466;55.948;37.484;2023-10-31T05:31:23;16.55;;;10.98;;
80136;SDS011;69466;55.948;37.484;2023-10-31T05:33:50;13.30;;;8.52;;
80136;SDS011;69466;55.948;37.484;2023-10-31T05:36:21;9.82;;;7.20;;
80136;SDS011;69466;55.948;37.484;2023-10-31T05:38:49;14.63;;;8.63;;
80136;SDS011;69466;55.948;37.484;2023-10-31T05:41:15;15.35;;;8.50;;
80136;SDS011;69466;55.948;37.484;2023-10-31T05:43:41;13.10;;;7.45;;
80136;SDS011;69466;55.948;37.484;2023-10-31T05:46:07;10.95;;;6.20;;
80136;SDS011;69466;55.948;37.484;2023-10-31T05:48:39;14.40;;;7.95;;
80136;SDS011;69466;55.948;37.484;2023-10-31T05:51:15;11.25;;;6.53;;
80136;SDS011;69466;55.948;37.484;2023-10-31T05:53:45;11.57;;;7.50;;
80136;SDS011;69466;55.948;37.484;2023-10-31T05:56:12;13.95;;;7.00;;
80136;SDS011;69466;55.948;37.484;2023-10-31T05:58:39;12.00;;;6.68;;
80136;SDS011;69466;55.948;37.484;2023-10-31T06:01:07;15.02;;;8.57;;
80136;SDS011;69466;55.948;37.484;2023-10-31T06:03:36;12.02;;;7.25;;
80136;SDS011;69466;55.948;37.484;2023-10-31T06:06:06;17.92;;;11.55;;
80136;SDS011;69466;55.948;37.484;2023-10-31T06:08:32;13.90;;;8.60;;
80136;SDS011;69466;55.948;37.484;2023-10-31T06:10:58;12.10;;;8.48;;
80136;SDS011;69466;55.948;37.484;2023-10-31T06:13:24;12.68;;;7.80;;
80136;SDS011;69466;55.948;37.484;2023-10-31T06:15:54;17.90;;;10.60;;
80136;SDS011;69466;55.948;37.484;2023-10-31T06:18:20;13.63;;;9.55;;
80136;SDS011;69466;55.948;37.484;2023-10-31T06:20:46;15.07;;;8.85;;
80136;SDS011;69466;55.948;37.484;2023-10-31T06:23:15;13.48;;;8.63;;
80136;SDS011;69466;55.948;37.484;2023-10-31T06:25:41;13.13;;;8.48;;
80136;SDS011;69466;55.948;37.484;2023-10-31T06:28:07;12.95;;;8.18;;
80136;SDS011;69466;55.948;37.484;2023-10-31T06:30:33;13.07;;;7.85;;
80136;SDS011;69466;55.948;37.484;2023-10-31T06:32:59;12.32;;;7.90;;
80136;SDS011;69466;55.948;37.484;2023-10-31T06:35:25;19.48;;;11.60;;
80136;SDS011;69466;55.948;37.484;2023-10-31T06:37:53;14.27;;;8.95;;
80136;SDS011;69466;55.948;37.484;2023-10-31T06:40:20;13.38;;;7.72;;
80136;SDS011;69466;55.948;37.484;2023-10-31T06:42:48;13.27;;;8.35;;
80136;SDS011;69466;55.948;37.484;2023-10-31T06:45:14;10.80;;;7.53;;
80136;SDS011;69466;55.948;37.484;2023-10-31T06:47:40;11.07;;;7.13;;
80136;SDS011;69466;55.948;37.484;2023-10-31T06:50:07;9.60;;;6.93;;
80136;SDS011;69466;55.948;37.484;2023-10-31T06:52:34;11.88;;;6.95;;
80136;SDS011;69466;55.948;37.484;2023-10-31T06:55:00;12.15;;;6.75;;
80136;SDS011;69466;55.948;37.484;2023-10-31T06:57:26;10.93;;;7.78;;
80136;SDS011;69466;55.948;37.484;2023-10-31T06:59:52;9.68;;;6.38;;
80136;SDS011;69466;55.948;37.484;2023-10-31T07:02:18;12.30;;;6.88;;
80136;SDS011;69466;55.948;37.484;2023-10-31T07:04:44;12.05;;;6.68;;
80136;SDS011;69466;55.948;37.484;2023-10-31T07:07:10;10.55;;;6.43;;
80136;SDS011;69466;55.948;37.484;2023-10-31T07:09:36;11.48;;;6.55;;
80136;SDS011;69466;55.948;37.484;2023-10-31T07:12:07;13.60;;;6.43;;
80136;SDS011;69466;55.948;37.484;2023-10-31T07:14:34;11.25;;;6.60;;
80136;SDS011;69466;55.948;37.484;2023-10-31T07:17:00;9.80;;;6.35;;
80136;SDS011;69466;55.948;37.484;2023-10-31T07:19:30;16.92;;;7.53;;
80136;SDS011;69466;55.948;37.484;2023-10-31T07:21:56;9.10;;;5.90;;
80136;SDS011;69466;55.948;37.484;2023-10-31T07:24:22;12.68;;;7.20;;
80136;SDS011;69466;55.948;37.484;2023-10-31T07:26:47;12.02;;;6.72;;
80136;SDS011;69466;55.948;37.484;2023-10-31T07:29:22;12.55;;;6.50;;
80136;SDS011;69466;55.948;37.484;2023-10-31T07:31:48;10.32;;;6.65;;
80136;SDS011;69466;55.948;37.484;2023-10-31T07:34:14;8.35;;;6.10;;
80136;SDS011;69466;55.948;37.484;2023-10-31T07:36:41;10.48;;;6.90;;
80136;SDS011;69466;55.948;37.484;2023-10-31T07:39:07;12.43;;;7.47;;
80136;SDS011;69466;55.948;37.484;2023-10-31T07:41:33;12.18;;;7.88;;
80136;SDS011;69466;55.948;37.484;2023-10-31T07:44:02;10.85;;;7.35;;
80136;SDS011;69466;55.948;37.484;2023-10-31T07:46:28;12.63;;;7.50;;
80136;SDS011;69466;55.948;37.484;2023-10-31T07:48:54;13.23;;;7.70;;
80136;SDS011;69466;55.948;37.484;2023-10-31T07:51:20;13.50;;;7.85;;
80136;SDS011;69466;55.948;37.484;2023-10-31T07:53:46;10.88;;;7.78;;
80136;SDS011;69466;55.948;37.484;2023-10-31T07:56:15;14.40;;;8.65;;
80136;SDS011;69466;55.948;37.484;2023-10-31T07:58:42;15.48;;;8.65;;
80136;SDS011;69466;55.948;37.484;2023-10-31T08:01:08;12.52;;;7.95;;
80136;SDS011;69466;55.948;37.484;2023-10-31T08:03:37;12.85;;;7.57;;
80136;SDS011;69466;55.948;37.484;2023-10-31T08:06:04;12.60;;;8.25;;
80136;SDS011;69466;55.948;37.484;2023-10-31T08:08:33;12.73;;;7.65;;
80136;SDS011;69466;55.948;37.484;2023-10-31T08:11:10;12.95;;;7.38;;
80136;SDS011;69466;55.948;37.484;2023-10-31T08:13:37;11.52;;;7.72;;
80136;SDS011;69466;55.948;37.484;2023-10-31T08:16:06;11.80;;;8.00;;
80136;SDS011;69466;55.948;37.484;2023-10-31T08:18:33;11.43;;;8.27;;
80136;SDS011;69466;55.948;37.484;2023-10-31T08:21:00;12.60;;;7.75;;
80136;SDS011;69466;55.948;37.484;2023-10-31T08:23:29;12.30;;;8.15;;
80136;SDS011;69466;55.948;37.484;2023-10-31T08:25:55;12.07;;;7.55;;
80136;SDS011;69466;55.948;37.484;2023-10-31T08:28:21;12.95;;;8.35;;
80136;SDS011;69466;55.948;37.484;2023-10-31T08:30:48;10.30;;;6.90;;
80136;SDS011;69466;55.948;37.484;2023-10-31T08:33:13;14.48;;;8.82;;
80136;SDS011;69466;55.948;37.484;2023-10-31T08:35:39;12.50;;;6.90;;
80136;SDS011;69466;55.948;37.484;2023-10-31T08:38:07;10.95;;;7.50;;
80136;SDS011;69466;55.948;37.484;2023-10-31T08:40:32;10.65;;;7.15;;
80136;SDS011;69466;55.948;37.484;2023-10-31T08:42:58;11.48;;;5.80;;
80136;SDS011;69466;55.948;37.484;2023-10-31T08:45:26;9.25;;;5.88;;
80136;SDS011;69466;55.948;37.484;2023-10-31T08:47:52;7.88;;;5.50;;
80136;SDS011;69466;55.948;37.484;2023-10-31T08:50:18;8.52;;;5.45;;
80136;SDS011;69466;55.948;37.484;2023-10-31T08:52:44;11.23;;;6.05;;
80136;SDS011;69466;55.948;37.484;2023-10-31T08:55:10;8.73;;;4.53;;
80136;SDS011;69466;55.948;37.484;2023-10-31T08:57:37;8.02;;;4.82;;
80136;SDS011;69466;55.948;37.484;2023-10-31T09:00:03;10.13;;;5.03;;
80136;SDS011;69466;55.948;37.484;2023-10-31T09:02:32;8.10;;;4.90;;
80136;SDS011;69466;55.948;37.484;2023-10-31T09:04:59;8.65;;;5.25;;
80136;SDS011;69466;55.948;37.484;2023-10-31T09:07:25;8.32;;;5.20;;
80136;SDS011;69466;55.948;37.484;2023-10-31T09:09:52;6.65;;;4.25;;
80136;SDS011;69466;55.948;37.484;2023-10-31T09:12:18;8.15;;;4.95;;
80136;SDS011;69466;55.948;37.484;2023-10-31T09:14:44;7.63;;;5.18;;
80136;SDS011;69466;55.948;37.484;2023-10-31T09:17:10;7.45;;;4.47;;
80136;SDS011;69466;55.948;37.484;2023-10-31T09:19:36;8.02;;;4.00;;
80136;SDS011;69466;55.948;37.484;2023-10-31T09:22:04;8.50;;;5.13;;
80136;SDS011;69466;55.948;37.484;2023-10-31T09:24:30;9.00;;;5.20;;
80136;SDS011;69466;55.948;37.484;2023-10-31T09:26:56;7.78;;;4.40;;
80136;SDS011;69466;55.948;37.484;2023-10-31T09:29:22;9.02;;;4.93;;
80136;SDS011;69466;55.948;37.484;2023-10-31T09:31:48;7.03;;;3.90;;
80136;SDS011;69466;55.948;37.484;2023-10-31T09:36:35;6.57;;;4.18;;
80136;SDS011;69466;55.948;37.484;2023-10-31T09:39:01;6.60;;;4.25;;
80136;SDS011;69466;55.948;37.484;2023-10-31T09:41:27;6.80;;;4.18;;
80136;SDS011;69466;55.948;37.484;2023-10-31T09:43:53;7.18;;;4.60;;
80136;SDS011;69466;55.948;37.484;2023-10-31T09:46:20;6.07;;;3.95;;
80136;SDS011;69466;55.948;37.484;2023-10-31T09:48:50;7.25;;;4.05;;
80136;SDS011;69466;55.948;37.484;2023-10-31T09:51:17;7.70;;;4.82;;
80136;SDS011;69466;55.948;37.484;2023-10-31T09:53:44;8.65;;;4.72;;
80136;SDS011;69466;55.948;37.484;2023-10-31T09:56:11;6.95;;;4.10;;
80136;SDS011;69466;55.948;37.484;2023-10-31T09:58:37;6.93;;;4.88;;
80136;SDS011;69466;55.948;37.484;2023-10-31T10:01:05;9.15;;;4.57;;
80136;SDS011;69466;55.948;37.484;2023-10-31T10:03:31;8.65;;;4.57;;
80136;SDS011;69466;55.948;37.484;2023-10-31T10:05:57;8.73;;;4.63;;
80136;SDS011;69466;55.948;37.484;2023-10-31T10:08:23;7.40;;;4.57;;
80136;SDS011;69466;55.948;37.484;2023-10-31T10:10:50;6.65;;;3.97;;
80136;SDS011;69466;55.948;37.484;2023-10-31T10:13:18;6.38;;;4.40;;
80136;SDS011;69466;55.948;37.484;2023-10-31T10:15:46;8.43;;;5.13;;
80136;SDS011;69466;55.948;37.484;2023-10-31T10:18:25;7.05;;;4.30;;
80136;SDS011;69466;55.948;37.484;2023-10-31T10:20:58;7.93;;;4.13;;
80136;SDS011;69466;55.948;37.484;2023-10-31T10:23:25;7.43;;;4.65;;
80136;SDS011;69466;55.948;37.484;2023-10-31T10:25:55;6.40;;;3.97;;
80136;SDS011;69466;55.948;37.484;2023-10-31T10:28:22;6.30;;;4.07;;
80136;SDS011;69466;55.948;37.484;2023-10-31T10:30:51;8.00;;;4.18;;
80136;SDS011;69466;55.948;37.484;2023-10-31T10:33:20;8.27;;;4.95;;
80136;SDS011;69466;55.948;37.484;2023-10-31T10:35:46;6.40;;;4.00;;
80136;SDS011;69466;55.948;37.484;2023-10-31T10:38:14;7.53;;;4.68;;
80136;SDS011;69466;55.948;37.484;2023-10-31T10:40:45;6.85;;;4.63;;
80136;SDS011;69466;55.948;37.484;2023-10-31T10:43:15;6.13;;;3.85;;
80136;SDS011;69466;55.948;37.484;2023-10-31T10:45:43;6.95;;;4.55;;
80136;SDS011;69466;55.948;37.484;2023-10-31T10:48:11;6.65;;;3.88;;
80136;SDS011;69466;55.948;37.484;2023-10-31T10:50:45;7.07;;;4.38;;
80136;SDS011;69466;55.948;37.484;2023-10-31T10:53:22;8.05;;;4.78;;
80136;SDS011;69466;55.948;37.484;2023-10-31T10:56:07;8.32;;;4.35;;
80136;SDS011;69466;55.948;37.484;2023-10-31T11:01:10;7.13;;;4.38;;
80136;SDS011;69466;55.948;37.484;2023-10-31T11:03:36;6.93;;;4.70;;
80136;SDS011;69466;55.948;37.484;2023-10-31T11:06:07;7.57;;;4.63;;
80136;SDS011;69466;55.948;37.484;2023-10-31T11:08:35;7.32;;;4.55;;
80136;SDS011;69466;55.948;37.484;2023-10-31T11:11:03;7.25;;;4.43;;
80136;SDS011;69466;55.948;37.484;2023-10-31T11:13:31;6.88;;;5.07;;
80136;SDS011;69466;55.948;37.484;2023-10-31T11:16:02;6.72;;;4.40;;
80136;SDS011;69466;55.948;37.484;2023-10-31T11:18:34;5.60;;;3.80;;
80136;SDS011;69466;55.948;37.484;2023-10-31T11:21:00;8.43;;;5.05;;
80136;SDS011;69466;55.948;37.484;2023-10-31T11:23:27;8.48;;;4.32;;
80136;SDS011;69466;55.948;37.484;2023-10-31T11:25:56;7.45;;;4.35;;
80136;SDS011;69466;55.948;37.484;2023-10-31T11:28:23;6.93;;;4.47;;
80136;SDS011;69466;55.948;37.484;2023-10-31T11:30:52;8.32;;;4.07;;
80136;SDS011;69466;55.948;37.484;2023-10-31T11:33:24;7.45;;;3.88;;
80136;SDS011;69466;55.948;37.484;2023-10-31T11:35:50;6.22;;;3.72;;
80136;SDS011;69466;55.948;37.484;2023-10-31T11:38:17;9.45;;;4.00;;
80136;SDS011;69466;55.948;37.484;2023-10-31T11:40:58;7.00;;;4.20;;
80136;SDS011;69466;55.948;37.484;2023-10-31T11:46:04;7.40;;;4.07;;
80136;SDS011;69466;55.948;37.484;2023-10-31T11:48:46;9.23;;;4.50;;
80136;SDS011;69466;55.948;37.484;2023-10-31T11:51:22;8.25;;;5.10;;
80136;SDS011;69466;55.948;37.484;2023-10-31T11:53:49;7.95;;;4.93;;
80136;SDS011;69466;55.948;37.484;2023-10-31T11:56:19;8.10;;;4.68;;
80136;SDS011;69466;55.948;37.484;2023-10-31T11:58:55;6.70;;;4.40;;
80136;SDS011;69466;55.948;37.484;2023-10-31T12:01:22;8.82;;;5.07;;
80136;SDS011;69466;55.948;37.484;2023-10-31T12:03:51;8.43;;;4.15;;
80136;SDS011;69466;55.948;37.484;2023-10-31T12:06:17;15.02;;;5.50;;
80136;SDS011;69466;55.948;37.484;2023-10-31T12:08:46;7.43;;;4.30;;
80136;SDS011;69466;55.948;37.484;2023-10-31T12:11:13;7.80;;;4.40;;
80136;SDS011;69466;55.948;37.484;2023-10-31T12:13:52;10.68;;;4.05;;
80136;SDS011;69466;55.948;37.484;2023-10-31T12:16:22;9.07;;;4.53;;
80136;SDS011;69466;55.948;37.484;2023-10-31T12:18:58;7.00;;;4.05;;
80136;SDS011;69466;55.948;37.484;2023-10-31T12:21:39;8.05;;;4.25;;
80136;SDS011;69466;55.948;37.484;2023-10-31T12:24:10;5.80;;;3.92;;
80136;SDS011;69466;55.948;37.484;2023-10-31T12:26:40;8.45;;;4.38;;
80136;SDS011;69466;55.948;37.484;2023-10-31T12:29:11;9.02;;;4.20;;
80136;SDS011;69466;55.948;37.484;2023-10-31T12:31:42;7.93;;;3.97;;
80136;SDS011;69466;55.948;37.484;2023-10-31T12:34:13;14.45;;;6.47;;
80136;SDS011;69466;55.948;37.484;2023-10-31T12:36:40;8.52;;;5.00;;
80136;SDS011;69466;55.948;37.484;2023-10-31T12:39:07;7.32;;;4.72;;
80136;SDS011;69466;55.948;37.484;2023-10-31T12:41:37;9.68;;;5.95;;
80136;SDS011;69466;55.948;37.484;2023-10-31T12:44:05;7.47;;;5.13;;
80136;SDS011;69466;55.948;37.484;2023-10-31T12:46:33;10.00;;;5.78;;
80136;SDS011;69466;55.948;37.484;2023-10-31T12:49:03;10.68;;;5.22;;
80136;SDS011;69466;55.948;37.484;2023-10-31T12:51:32;8.82;;;4.85;;
80136;SDS011;69466;55.948;37.484;2023-10-31T12:53:58;9.73;;;5.45;;
80136;SDS011;69466;55.948;37.484;2023-10-31T12:59:07;9.05;;;5.32;;
80136;SDS011;69466;55.948;37.484;2023-10-31T13:01:44;11.35;;;5.82;;
80136;SDS011;69466;55.948;37.484;2023-10-31T13:07:01;15.95;;;7.35;;
80136;SDS011;69466;55.948;37.484;2023-10-31T13:09:32;14.45;;;6.88;;
80136;SDS011;69466;55.948;37.484;2023-10-31T13:12:05;14.07;;;7.82;;
80136;SDS011;69466;55.948;37.484;2023-10-31T13:14:37;14.10;;;7.85;;
80136;SDS011;69466;55.948;37.484;2023-10-31T13:17:07;14.82;;;7.50;;
80136;SDS011;69466;55.948;37.484;2023-10-31T13:19:35;17.20;;;8.82;;
80136;SDS011;69466;55.948;37.484;2023-10-31T13:22:01;13.10;;;7.93;;
80136;SDS011;69466;55.948;37.484;2023-10-31T13:24:27;13.88;;;7.45;;
80136;SDS011;69466;55.948;37.484;2023-10-31T13:26:53;21.73;;;8.30;;
80136;SDS011;69466;55.948;37.484;2023-10-31T13:29:20;12.35;;;7.55;;
80136;SDS011;69466;55.948;37.484;2023-10-31T13:31:54;9.48;;;6.20;;
80136;SDS011;69466;55.948;37.484;2023-10-31T13:34:21;15.32;;;9.02;;
80136;SDS011;69466;55.948;37.484;2023-10-31T13:36:48;15.65;;;8.35;;
80136;SDS011;69466;55.948;37.484;2023-10-31T13:39:14;13.30;;;7.93;;
80136;SDS011;69466;55.948;37.484;2023-10-31T13:41:40;12.05;;;7.90;;
80136;SDS011;69466;55.948;37.484;2023-10-31T13:44:08;12.05;;;7.28;;
80136;SDS011;69466;55.948;37.484;2023-10-31T13:46:34;12.90;;;7.60;;
80136;SDS011;69466;55.948;37.484;2023-10-31T13:49:01;11.50;;;7.68;;
80136;SDS011;69466;55.948;37.484;2023-10-31T13:51:29;16.30;;;7.85;;
80136;SDS011;69466;55.948;37.484;2023-10-31T13:53:57;15.35;;;8.10;;
80136;SDS011;69466;55.948;37.484;2023-10-31T13:56:28;48.90;;;8.98;;
80136;SDS011;69466;55.948;37.484;2023-10-31T13:58:54;13.18;;;7.97;;
80136;SDS011;69466;55.948;37.484;2023-10-31T14:01:26;17.73;;;9.57;;
80136;SDS011;69466;55.948;37.484;2023-10-31T14:03:56;14.32;;;8.68;;
80136;SDS011;69466;55.948;37.484;2023-10-31T14:06:22;17.50;;;9.15;;
80136;SDS011;69466;55.948;37.484;2023-10-31T14:08:56;15.23;;;9.48;;
80136;SDS011;69466;55.948;37.484;2023-10-31T14:11:23;11.57;;;7.00;;
80136;SDS011;69466;55.948;37.484;2023-10-31T14:13:49;12.07;;;7.82;;
80136;SDS011;69466;55.948;37.484;2023-10-31T14:16:19;17.08;;;10.43;;
80136;SDS011;69466;55.948;37.484;2023-10-31T14:18:45;15.55;;;9.63;;
80136;SDS011;69466;55.948;37.484;2023-10-31T14:21:13;15.45;;;9.95;;
80136;SDS011;69466;55.948;37.484;2023-10-31T14:23:39;14.55;;;8.82;;
80136;SDS011;69466;55.948;37.484;2023-10-31T14:26:05;13.13;;;7.55;;
80136;SDS011;69466;55.948;37.484;2023-10-31T14:28:32;15.75;;;9.38;;
80136;SDS011;69466;55.948;37.484;2023-10-31T14:30:58;14.35;;;8.18;;
80136;SDS011;69466;55.948;37.484;2023-10-31T14:33:24;16.67;;;11.13;;
80136;SDS011;69466;55.948;37.484;2023-10-31T14:35:50;16.00;;;8.95;;
80136;SDS011;69466;55.948;37.484;2023-10-31T14:38:16;19.25;;;10.25;;
80136;SDS011;69466;55.948;37.484;2023-10-31T14:40:42;20.65;;;11.43;;
80136;SDS011;69466;55.948;37.484;2023-10-31T14:43:08;21.05;;;13.73;;
80136;SDS011;69466;55.948;37.484;2023-10-31T14:45:34;27.17;;;15.50;;
80136;SDS011;69466;55.948;37.484;2023-10-31T14:48:00;25.20;;;16.25;;